Tiempo atmosférico en la estación meteorológica de Puerto de Navacerrada, Madrid (1894 m.)



Fecha
DESCASC
Temp. máxima en grados centígrados (hora)
DESCASC
Temp. mínima en grados centígrados (hora)
DESCASC
Temp. media en grados centígrados
DESCASC
Racha de viento máxima en m/sg (hora)
DESCASC
Velocidad máxima media en intervalos de 10 minutos(hora)
DESCASC
Precipitaciones diarias en mm
DESCASC
Precipitaciones de 00:00 a 06:00 en mm
DESCASC
Precipitaciones de 06:00 a 12:00 en mm
DESCASC
Precipitaciones de 12:00 a 18:00 en mm
DESCASC
Precipitaciones de 18:00 a 24:00 en mm
DESCASC
14-12-2019 2.3 (15:00) -0.4 (08:30) 0.9 13.33 (00:40) 6.67 (00:40) 0 0 0 0 0
13-12-2019 4 (02:00) 1.5 (23:59) 2.8 27.22 (07:00) 8.89 (03:40) 3.4 3.2 0 0.2 0
12-12-2019 3.5 (23:50) -2.8 (01:10) 0.4 25.56 (18:10) 9.72 (15:20) 32.4 0 3.4 13.8 15.2
11-12-2019 3.5 (00:30) -3 (-00:0) 0.3 19.17 (16:40) 9.17 (18:40) 5.8 0 5.6 0.2 0
10-12-2019 8.5 (14:30) 0.5 (00:00) 4.5 8.61 (22:00) 5.83 (21:50) 0 0 0 0 0
09-12-2019 3.1 (12:30) -1.2 (-00:0) 0.9 12.5 (14:50) 7.22 (18:40) 0.2 0 0.2 0 0
08-12-2019 4.3 (13:10) 1.1 (00:00) 2.7 11.39 (20:30) 5.28 (08:40) 11.8 0 0 5.2 6.6
07-12-2019 8.6 (12:00) 1 (00:00) 4.8 6.94 (07:00) 3.89 (07:00) 0 0 0 0 0
06-12-2019 5.8 (12:50) -0.4 (00:00) 2.7 11.39 (01:20) 5.28 (08:20) 0 0 0 0 0
05-12-2019 2.6 (12:20) -0.3 (00:00) 1.1 11.11 (06:20) 5.83 (06:20) 1.2 1 0.2 0 0
04-12-2019 1.5 (23:20) -1 (-00:0) 0.3 14.17 (19:10) 6.67 (18:10) 1.4 0.4 0 0.6 0.4
03-12-2019 3.3 (11:50) -1.7 (-00:0) 0.8 9.72 (19:10) 6.67 (19:20) 0 0 0 0 0
02-12-2019 1 (15:30) -3 (-00:0) -1 16.39 (02:30) 6.39 (18:10) 3 0.4 0.4 2.2 0
01-12-2019 0 (13:40) -2.7 (-00:0) -1.4 12.22 (08:40) 8.06 (08:40) 14.2 0 1.6 8.2 4.4
30-11-2019 7.1 (12:30) -1.6 (-00:0) 2.7 13.89 (20:30) 8.06 (16:50) 9 0 0 4 5
29-11-2019 7.8 (14:10) 3.5 (00:00) 5.7 18.06 (03:10) 6.39 (02:40) 12.4 5.6 4.8 2 0
28-11-2019 5.3 (14:20) 1.5 (00:00) 3.4 18.61 (21:50) 7.5 (23:30) 0 0 0 0 0
27-11-2019 3.8 (14:30) -0.5 (-00:0) 1.6 21.67 (02:40) 10 (01:10) 0.6 0.6 0 0 0
26-11-2019 7.9 (12:30) 1.4 (00:00) 4.7 19.72 (22:10) 11.11 (22:30) 4.4 0 0.4 1.4 2.6
25-11-2019 5.2 (01:50) 2.1 (00:00) 3.6 21.94 (01:20) 9.72 (01:20) 5.2 5.2 0 0 0
24-11-2019 4.6 (23:50) -3 (-00:0) 0.8 19.17 (00:10) 7.78 (23:59) 0.8 0 0 0 0.8
23-11-2019 -0.3 (00:00) -3.3 (-00:0) -1.8 26.39 (09:00) 10.28 (00:40) 13.4 10.6 2 0.4 0.4
22-11-2019 3 (15:10) -0.9 (-00:0) 1.1 22.78 (18:30) 11.11 (10:40) 20.8 3.6 10.4 5.4 1.4
21-11-2019 0.9 (13:30) -2.6 (-00:0) -0.8 12.22 (09:30) 6.67 (23:20) 2.8 0 1 1.8 0
20-11-2019 -0.7 (12:20) -3.1 (-00:0) -1.9 12.78 (10:40) 8.06 (15:00) 3.4 0 0 3.2 0.2
19-11-2019 -0.2 (14:10) -4.4 (-00:0) -2.3 8.33 (06:10) 5.83 (06:20) 0 0 0 0 0
18-11-2019 -2.1 (00:00) -3.4 (-00:0) -2.8 15 (00:50) 7.78 (00:50) 3 1.6 0.2 0 1.2
17-11-2019 2 (15:00) -4.5 (-00:0) -1.3 17.22 (22:10) 7.78 (22:00) 13.4 0 1.8 10.6 1
16-11-2019 -3.1 (14:10) -6.2 (-00:0) -4.6 13.61 (23:10) 6.39 (23:10) 1.2 0 0.2 1 0

Gráficas

Temp. máximas Temp. mínimas Temp. medias Precipitaciones Rachas de viento máximas Velocidades máximas media en intervalos de 10 minutos

Datos horarios

Fecha y hora oficial Temperatura (ºC) Velocidad del viento (km/h) Dirección del viento Racha (km/h) Dirección de racha Precipitación (mm) Presión (hPa) Tendencia (hPa) Humedad (%)
2019-12-15 23:00:00 0.9 31 Sur 50 Sur 0.2 803.9 -1.3 100
2019-12-15 22:00:00 1 33 Sur 60 Sur 0 804.2 -1.1 100
2019-12-15 21:00:00 1.2 30 Sur 51 Sur 0.2 804.6 -0.6 100
2019-12-15 20:00:00 1.4 17 Sur 43 Sur 0.4 805.2 -0.2 100
2019-12-15 19:00:00 1.5 27 Sur 52 Sur 0.2 805.3 -0.4 100
2019-12-15 18:00:00 1.4 34 Sur 56 Sur 0 805.2 -1 100
2019-12-15 17:00:00 1.4 35 Sur 53 Sur 0 805.4 -1.1 100
2019-12-15 16:00:00 1.6 30 Sur 46 Sur 0 805.7 -1.2 100
2019-12-15 15:00:00 2.2 18 Sur 40 Sur 0 806.2 -1.6 100
2019-12-15 14:00:00 3.1 14 Sudoeste 46 Sur 0 806.5 -1.1 99
2019-12-15 13:00:00 2.4 24 Sur 44 Sur 0 806.9 -0.2 96
2019-12-15 12:00:00 3.4 21 Sudoeste 49 Sudoeste 0 807.8 0.5 78
2019-12-15 11:00:00 2.6 31 Sudoeste 58 Sudoeste 0 807.6 0 70
2019-12-15 10:00:00 2.4 34 Sudoeste 53 Sudoeste 0 807.1 -0.6 59
2019-12-15 09:00:00 0.9 22 Sudoeste 35 Sudoeste 0 807.3 -0.5 65
2019-12-15 08:00:00 0.7 11 Sudoeste 35 Oeste 0 807.6 -0.5 75
2019-12-15 07:00:00 0 3 Noroeste 40 Sudoeste 0 807.7 -0.9 100
2019-12-15 06:00:00 -0.2 12 Sudoeste 26 Sudoeste 0 807.8 -1.4 100
2019-12-15 05:00:00 -0.3 8 Sudoeste 18 Sudoeste 0 808.1 -1.5 100
2019-12-15 04:00:00 -0.7 3 Sur 10 Norte 0 808.6 -1.7 100
2019-12-15 03:00:00 -0.6 5 Noroeste 16 Oeste 0 809.2 -1.4 100
2019-12-15 02:00:00 0 4 Norte 12 Norte 0 809.6 -1.1 100
2019-12-15 01:00:00 0.4 5 Norte 18 Norte 0 810.3 -0.7 100
2019-12-15 00:00:00 0.4 8 Nordeste 18 Norte 0 810.6 -0.3 100
2019-12-14 23:00:00 0.4 10 Nordeste 22 Norte 0 810.7 -0.4 100
2019-12-14 22:00:00 0.3 13 Nordeste 22 Norte 0 811 0.1 100
2019-12-14 21:00:00 0.4 9 Nordeste 31 Norte 0 810.9 0.1 100
2019-12-14 20:00:00 0.7 14 Norte 36 Norte 0 811.1 0.5 100
2019-12-14 19:00:00 0.8 13 Norte 33 Norte 0 810.9 0.1 100
2019-12-14 18:00:00 0.8 15 Norte 27 Norte 0 810.8 0 100
2019-12-14 17:00:00 1 12 Norte 32 Norte 0 810.6 -0.6 100
2019-12-14 16:00:00 1.7 8 Norte 23 Norte 0 810.8 -1 100
2019-12-14 15:00:00 2.2 5 Nordeste 19 Nordeste 0 810.8 -1.4 100
2019-12-14 14:00:00 1.2 8 Nordeste 18 Nordeste 0 811.2 -1.1 100
2019-12-14 13:00:00 1.2 6 Norte 18 Nordeste 0 811.8 -0.4 100
2019-12-14 12:00:00 0.7 10 Nordeste 19 Nordeste 0 812.2 0.2 100
2019-12-14 11:00:00 0.2 13 Norte 27 Norte 0 812.3 0.6 100
2019-12-14 10:00:00 -0.2 14 Nordeste 28 Norte 0 812.2 0.7 100
2019-12-14 09:00:00 -0.4 14 Norte 27 Norte 0 812 0.5 100
2019-12-14 08:00:00 -0.3 15 Norte 31 Norte 0 811.7 -0.1 100
2019-12-14 07:00:00 -0.2 15 Norte 30 Norte 0 811.5 -0.5 100
2019-12-14 06:00:00 0.2 16 Norte 39 Norte 0 811.5 -0.7 100
2019-12-14 05:00:00 0.4 19 Norte 39 Norte 0 811.8 -0.3 100
2019-12-14 04:00:00 0.5 16 Nordeste 36 Norte 0 812 -0.2 100
2019-12-14 03:00:00 0.6 17 Norte 36 Norte 0 812.2 0.4 100
2019-12-14 02:00:00 0.8 22 Norte 46 Norte 0 812.1 0.8 100
2019-12-14 01:00:00 1.2 18 Norte 48 Norte 0 812.2 1 100
2019-12-14 00:00:00 1.6 21 Noroeste 55 Norte 0 811.8 0.7 100
2019-12-13 23:00:00 1.7 16 Noroeste 59 Noroeste 0 811.3 0.5 100
2019-12-13 22:00:00 1.9 23 Noroeste 67 Noroeste 0 811.2 0.8 100
2019-12-13 21:00:00 2.2 19 Noroeste 67 Oeste 0 811.1 0.9 100
2019-12-13 20:00:00 2.5 22 Noroeste 79 Noroeste 0 810.8 0.8 100
2019-12-13 19:00:00 2.7 22 Noroeste 75 Noroeste 0 810.4 0.5 100
2019-12-13 18:00:00 3.2 22 Noroeste 76 Noroeste 0 810.2 0.7 100
2019-12-13 17:00:00 3.7 21 Noroeste 74 Noroeste 0 810 0.8 100
2019-12-13 16:00:00 3.7 22 Noroeste 76 Noroeste 0.2 809.9 0.1 100
2019-12-13 15:00:00 3.7 21 Noroeste 77 Noroeste 0 809.5 -0.3 100
2019-12-13 14:00:00 3.7 27 Noroeste 77 Noroeste 0 809.2 -0.3 100
2019-12-13 13:00:00 3.6 27 Noroeste 76 Noroeste 0 809.8 0.5 100
2019-12-13 12:00:00 3 25 Noroeste 68 Noroeste 0 809.8 1.4 100
2019-12-13 11:00:00 2.6 26 Noroeste 76 Noroeste 0 809.5 1.4 100
2019-12-13 10:00:00 2.1 22 Noroeste 87 Noroeste 0 809.3 1.5 100
2019-12-13 09:00:00 1.6 27 Noroeste 74 Noroeste 0 808.4 0.8 100
2019-12-13 08:00:00 1.7 27 Noroeste 72 Noroeste 0 808.1 0.5 100
2019-12-13 07:00:00 2.5 28 Noroeste 98 Noroeste 0 807.8 -0.2 100
2019-12-13 06:00:00 2.7 26 Noroeste 80 Noroeste 0 807.6 0 100
2019-12-13 05:00:00 3.1 27 Noroeste 78 Noroeste 0.2 807.6 -0.2 100
2019-12-13 04:00:00 3.7 27 Noroeste 94 Oeste 0.4 808 -0.5 100
2019-12-13 03:00:00 3.9 24 Noroeste 71 Noroeste 0.6 807.6 -0.6 100
2019-12-13 02:00:00 3.9 23 Noroeste 78 Noroeste 0.8 807.8 -0.2 100
2019-12-13 01:00:00 3.6 22 Oeste 75 Oeste 1.2 808.5 0.7 100
2019-12-13 00:00:00 3.5 26 Oeste 82 Noroeste 3.2 808.2 0.5 100
2019-12-12 23:00:00 3.3 26 Noroeste 89 Noroeste 3.4 808 0.7 100
2019-12-12 22:00:00 3.1 28 Oeste 84 Noroeste 1.6 807.8 0.8 100
2019-12-12 21:00:00 2.6 25 Noroeste 80 Noroeste 3 807.7 0.8 100
2019-12-12 20:00:00 2.1 24 Oeste 79 Noroeste 1.6 807.3 0.1 100
2019-12-12 19:00:00 1.5 24 Oeste 92 Oeste 2.4 807 -0.6 100
2019-12-12 18:00:00 0.6 23 Oeste 80 Oeste 4.2 806.9 -1.3 100
2019-12-12 17:00:00 0 31 Oeste 90 Oeste 2.8 807.2 -1.4 100
2019-12-12 16:00:00 -0.1 27 Oeste 87 Oeste 1 807.6 -1.9 100
2019-12-12 15:00:00 -0.4 30 Oeste 76 Oeste 1.4 808.2 -2.2 100
2019-12-12 14:00:00 -1 26 Oeste 73 Oeste 2.4 808.6 -2.4 100
2019-12-12 13:00:00 -1 23 Oeste 63 Oeste 2 809.5 -1.7 100
2019-12-12 12:00:00 -1.2 17 Noroeste 55 Noroeste 1.8 810.4 -0.4 100
2019-12-12 11:00:00 -1.5 21 Noroeste 59 Oeste 1.6 811 0 100
2019-12-12 10:00:00 -1.5 19 Noroeste 60 Noroeste 0 811.2 0 100
2019-12-12 09:00:00 -1.4 17 Noroeste 68 Noroeste 0 810.8 -0.9 100
2019-12-12 08:00:00 -1.5 18 Noroeste 53 Noroeste 0 811 -1.1 100
2019-12-12 07:00:00 -1.9 18 Noroeste 56 Noroeste 0 811.2 -1.1 100
2019-12-12 06:00:00 -2.3 20 Noroeste 59 Noroeste 0 811.7 -1.1 100
2019-12-12 05:00:00 -2.4 19 Noroeste 59 Oeste 0 812.1 -1 100
2019-12-12 04:00:00 -2.3 19 Noroeste 60 Noroeste 0 812.3 -1.1 100
2019-12-12 03:00:00 -2.6 14 Noroeste 61 Noroeste 0 812.8 -1 100
2019-12-12 02:00:00 -2.7 18 Noroeste 60 Noroeste 0 813.1 -0.7 100
2019-12-12 01:00:00 -2.7 18 Noroeste 54 Oeste 0 813.4 -0.7 100
2019-12-12 00:00:00 -2.6 20 Noroeste 62 Noroeste 0 813.8 -0.5 100
2019-12-11 23:00:00 -2.6 18 Noroeste 59 Noroeste 0 813.8 -0.8 100
2019-12-11 22:00:00 -2.9 22 Noroeste 55 Oeste 0 814.1 0 100
2019-12-11 21:00:00 -3 17 Noroeste 51 Noroeste 0 814.3 0.4 100
2019-12-11 20:00:00 -2.7 21 Noroeste 55 Noroeste 0 814.6 1 100
2019-12-11 19:00:00 -2.1 21 Noroeste 67 Noroeste 0 814.1 0.7 100
2019-12-11 18:00:00 -2.6 24 Noroeste 59 Noroeste 0 813.9 0.5 100
2019-12-11 17:00:00 -2.1 22 Norte 69 Noroeste 0 813.6 0.5 100
2019-12-11 16:00:00 -2 27 Norte 55 Noroeste 0 813.4 0.3 100
2019-12-11 15:00:00 -1.9 26 Noroeste 60 Noroeste 0 813.4 0.1 100
2019-12-11 14:00:00 -1.5 27 Noroeste 60 Norte 0 813.1 -0.9 100
2019-12-11 13:00:00 -0.9 26 Noroeste 61 Noroeste 0.2 813.1 -0.6 100
2019-12-11 12:00:00 -0.5 27 Noroeste 58 Noroeste 0 813.3 -0.1 100
2019-12-11 11:00:00 0.8 20 Noroeste 65 Oeste 2.8 814 0.2 100
2019-12-11 10:00:00 2 17 Noroeste 59 Oeste 2.4 813.7 -0.5 100
2019-12-11 09:00:00 2.5 19 Oeste 50 Oeste 0.4 813.4 -1 100
2019-12-11 08:00:00 2 12 Oeste 38 Oeste 0 813.8 -1.2 94
2019-12-11 07:00:00 2.4 10 Noroeste 33 Noroeste 0 814.2 -1.3 51
2019-12-11 06:00:00 2.4 13 Norte 28 Norte 0 814.4 -1.6 43
2019-12-11 05:00:00 2.1 6 Noroeste 24 Noroeste 0 815 -1.5 37
2019-12-11 04:00:00 2 11 Noroeste 30 Noroeste 0 815.5 -1.4 26
2019-12-11 03:00:00 1.9 12 Norte 25 Noroeste 0 816 -1.2 28
2019-12-11 02:00:00 2.6 13 Noroeste 31 Norte 0 816.5 -0.9 44
2019-12-11 01:00:00 2.7 11 Norte 22 Norte 0 816.9 -0.7 47
2019-12-11 00:00:00 2.6 10 Nordeste 19 Nordeste 0 817.2 -0.9 49
2019-12-10 23:00:00 1.8 15 Norte 28 Noroeste 0 817.4 -0.7 42
2019-12-10 22:00:00 3.4 19 Norte 31 Norte 0 817.6 -0.6 35
2019-12-10 21:00:00 3.7 13 Norte 26 Norte 0 818.1 -0.1 29
2019-12-10 20:00:00 4 10 Norte 21 Norte 0 818.1 -0.3 23
2019-12-10 19:00:00 5 10 Noroeste 17 Oeste 0 818.2 -0.4 20
2019-12-10 18:00:00 4.8 9 Nordeste 17 Norte 0 818.2 -0.8 20
2019-12-10 17:00:00 5.3 9 Norte 14 Norte 0 818.4 -1.2 24
2019-12-10 16:00:00 6.7 3 Nordeste 10 Noroeste 0 818.6 -1.3 42
2019-12-10 15:00:00 8 6 Noroeste 14 Noroeste 0 819 -1.7 25
2019-12-10 14:00:00 8 4 Norte 13 Norte 0 819.6 -1.2 19
2019-12-10 13:00:00 7 4 Nordeste 13 Norte 0 819.9 -0.6 26
2019-12-10 12:00:00 7.6 6 Noroeste 13 Norte 0 820.7 0.4 21
2019-12-10 11:00:00 7.8 5 Oeste 10 Noroeste 0 820.8 0.5 19
2019-12-10 10:00:00 5.5 4 Sudoeste 7 Sur 0 820.5 0.3 17
2019-12-10 09:00:00 4.2 0 Calma 9 Nordeste 0 820.3 -0.2 18
2019-12-10 08:00:00 4.3 8 Nordeste 16 Nordeste 0 820.3 0 19
2019-12-10 07:00:00 3.4 13 Norte 21 Norte 0 820.2 -0.6 21
2019-12-10 06:00:00 1.5 6 Norte 17 Noroeste 0 820.5 -0.5 40
2019-12-10 05:00:00 2.8 13 Nordeste 17 Nordeste 0 820.3 -0.7 25
2019-12-10 04:00:00 1.2 11 Noroeste 25 Norte 0 820.8 -0.5 40
2019-12-10 03:00:00 2.1 11 Noroeste 21 Norte 0 821 -0.3 35
2019-12-10 02:00:00 2.4 15 Norte 24 Norte 0 821 -0.3 38
2019-12-10 01:00:00 0.5 12 Norte 29 Norte 0 821.3 -0.1 54
2019-12-10 00:00:00 1.1 19 Norte 33 Norte 0 821.3 -0.1 51
2019-12-09 23:00:00 0.8 21 Norte 34 Norte 0 821.3 0.4 58
2019-12-09 22:00:00 1 23 Norte 40 Norte 0 821.4 1 57
2019-12-09 21:00:00 1 21 Norte 34 Norte 0 821.4 1.3 55
2019-12-09 20:00:00 0.8 22 Norte 37 Norte 0 820.9 0.9 55
2019-12-09 19:00:00 0.8 24 Norte 41 Norte 0 820.4 0.4 54
2019-12-09 18:00:00 0.5 24 Norte 42 Norte 0 820.1 0.4 55
2019-12-09 17:00:00 0.8 26 Norte 40 Norte 0 820 0 71
2019-12-09 16:00:00 1.6 23 Norte 40 Norte 0 820 -0.3 63
2019-12-09 15:00:00 2.9 23 Norte 45 Norte 0 819.7 -1.1 59
2019-12-09 14:00:00 3 23 Norte 44 Norte 0 820 -0.6 56
2019-12-09 13:00:00 2.5 22 Norte 41 Norte 0 820.3 0.2 57
2019-12-09 12:00:00 2.7 19 Norte 35 Norte 0 820.8 1.2 51
2019-12-09 11:00:00 1.6 19 Norte 35 Norte 0 820.6 1.2 57
2019-12-09 10:00:00 0.4 23 Norte 38 Norte 0 820.1 1 65
2019-12-09 09:00:00 -0.8 21 Norte 37 Norte 0 819.6 0.8 77
2019-12-09 08:00:00 -0.8 21 Norte 36 Norte 0 819.4 0.2 88
2019-12-09 07:00:00 -0.5 18 Norte 39 Norte 0.2 819.1 -0.1 86
2019-12-09 06:00:00 -0.7 13 Norte 32 Norte 0 818.8 -0.5 100
2019-12-09 05:00:00 0 17 Norte 28 Norte 0 819.2 -0.1 100
2019-12-09 04:00:00 0.2 14 Norte 31 Norte 0 819.2 0.1 100
2019-12-09 03:00:00 1.1 14 Norte 28 Norte 0 819.3 0.5 100
2019-12-09 02:00:00 1.7 16 Norte 32 Norte 0 819.3 0.8 100
2019-12-09 01:00:00 1.8 12 Noroeste 29 Norte 0 819.1 1 100
2019-12-09 00:00:00 2.4 14 Norte 30 Norte 0 818.8 0.7 100
2019-12-08 23:00:00 3.6 17 Norte 40 Norte 0.6 818.5 1 100
2019-12-08 22:00:00 4.1 14 Noroeste 39 Noroeste 0.6 818.1 0.9 100
2019-12-08 21:00:00 4.2 17 Noroeste 41 Norte 1.8 818.1 1.2 100
2019-12-08 20:00:00 4.2 15 Noroeste 34 Noroeste 2 817.5 0.8 100
2019-12-08 19:00:00 4.1 13 Noroeste 32 Noroeste 1.6 817.2 0.5 100
2019-12-08 18:00:00 3.8 14 Noroeste 31 Noroeste 1 816.9 0.3 100
2019-12-08 17:00:00 3.8 14 Norte 37 Noroeste 1.2 816.7 -0.1 100
2019-12-08 16:00:00 3.7 15 Noroeste 37 Norte 0.8 816.7 -0.5 100
2019-12-08 15:00:00 3.8 16 Noroeste 38 Norte 2 816.6 -0.8 100
2019-12-08 14:00:00 4.3 10 Noroeste 29 Noroeste 0.2 816.8 -0.7 100
2019-12-08 13:00:00 4.2 11 Noroeste 30 Norte 0 817.2 0 100
2019-12-08 12:00:00 3.7 15 Norte 31 Norte 0 817.4 0.3 100
2019-12-08 11:00:00 2.9 18 Norte 34 Norte 0 817.5 0.6 100
2019-12-08 10:00:00 2.1 18 Norte 31 Norte 0 817.2 0.5 92
2019-12-08 09:00:00 1.6 16 Norte 30 Noroeste 0 817.1 0.6 71
2019-12-08 08:00:00 1.1 14 Norte 26 Norte 0 816.9 0.2 68
2019-12-08 07:00:00 1.6 13 Norte 23 Norte 0 816.7 -0.2 84
2019-12-08 06:00:00 1.4 10 Norte 20 Norte 0 816.5 -0.7 87
2019-12-08 05:00:00 1.9 10 Norte 20 Norte 0 816.7 -0.5 79
2019-12-08 04:00:00 3.6 8 Noroeste 11 Noroeste 0 816.9 -0.7 73
2019-12-08 03:00:00 3.3 8 Oeste 13 Oeste 0 817.2 -0.4 69
2019-12-08 02:00:00 2 5 Este 11 Nordeste 0 817.2 -0.4 61
2019-12-08 01:00:00 2.5 11 Norte 17 Norte 0 817.6 0.1 62
2019-12-08 00:00:00 3.2 8 Noroeste 11 Norte 0 817.6 0.3 44
2019-12-07 23:00:00 2.3 6 Nordeste 13 Norte 0 817.6 0.7 63
2019-12-07 22:00:00 2.4 7 Noroeste 14 Norte 0 817.5 1 71
2019-12-07 21:00:00 2.7 9 Norte 18 Norte 0 817.3 1.1 66
2019-12-07 20:00:00 3.7 7 Norte 15 Norte 0 816.9 0.8 67
2019-12-07 19:00:00 2.8 12 Norte 14 Norte 0 816.5 0.6 73
2019-12-07 18:00:00 3.1 6 Nordeste 12 Norte 0 816.2 0.4 93
2019-12-07 17:00:00 5.8 7 Noroeste 13 Noroeste 0 816.1 0.1 78
2019-12-07 16:00:00 6.4 5 Oeste 12 Noroeste 0 815.9 -0.3 76
2019-12-07 15:00:00 6.8 3 Nordeste 9 Este 0 815.8 -0.8 75
2019-12-07 14:00:00 7.2 4 Noroeste 11 Noroeste 0 816 -0.5 71
2019-12-07 13:00:00 7.6 3 Noroeste 7 Noroeste 0 816.2 0.1 50
2019-12-07 12:00:00 8.6 3 Sudoeste 7 Este 0 816.6 0.7 50
2019-12-07 11:00:00 6.4 3 Este 9 Este 0 816.5 1 56
2019-12-07 10:00:00 3.1 5 Oeste 9 Oeste 0 816.1 1 69
2019-12-07 09:00:00 2.1 4 Noroeste 18 Norte 0 815.9 0.8 69
2019-12-07 08:00:00 2.9 8 Norte 19 Este 0 815.5 0.2 60
2019-12-07 07:00:00 2.6 14 Este 25 Este 0 815.1 -0.3 66
2019-12-07 06:00:00 1.6 6 Este 13 Noroeste 0 815.1 -0.3 73
2019-12-07 05:00:00 1.7 8 Noroeste 13 Noroeste 0 815.3 -0.1 82
2019-12-07 04:00:00 1.3 6 Noroeste 10 Noroeste 0 815.4 -0.2 99
2019-12-07 03:00:00 1.1 6 Noroeste 12 Noroeste 0 815.4 -0.2 100
2019-12-07 02:00:00 1.4 9 Noroeste 13 Norte 0 815.4 -0.2 98
2019-12-07 01:00:00 2.4 3 Sudoeste 16 Sudeste 0 815.6 0.2 72
2019-12-07 00:00:00 2 6 Sur 13 Sur 0 815.6 0.6 80
2019-12-06 23:00:00 1.1 8 Norte 11 Norte 0 815.6 0.9 100
2019-12-06 22:00:00 2.2 8 Noroeste 10 Oeste 0 815.4 0.9 84
2019-12-06 21:00:00 2.1 6 Sudoeste 14 Sur 0 815 0.8 84
2019-12-06 20:00:00 2 5 Sudoeste 15 Sur 0 814.7 0.5 80
2019-12-06 19:00:00 1.6 3 Noroeste 20 Sur 0 814.5 0.4 95
2019-12-06 18:00:00 2.1 8 Este 12 Sudeste 0 814.2 0 97
2019-12-06 17:00:00 3.6 7 Sudeste 13 Sudeste 0 814.2 -0.3 92
2019-12-06 16:00:00 4.7 3 Sudeste 7 Este 0 814.1 -0.6 86
2019-12-06 15:00:00 4.4 4 Nordeste 12 Oeste 0 814.2 -0.8 87
2019-12-06 14:00:00 3.7 8 Noroeste 15 Noroeste 0 814.5 -0.6 92
2019-12-06 13:00:00 5.4 7 Este 17 Sur 0 814.7 -0.2 82
2019-12-06 12:00:00 4.6 11 Sur 24 Sudeste 0 815 0.7 86
2019-12-06 11:00:00 3.1 13 Sur 23 Sur 0 815.1 1.3 91
2019-12-06 10:00:00 1.2 4 Sur 7 Sur 0 814.9 1 96
2019-12-06 09:00:00 0.6 5 Noroeste 28 Sur 0 814.3 0.7 93
2019-12-06 08:00:00 0.2 10 Sudeste 27 Sur 0 813.8 0.3 98
2019-12-06 07:00:00 0.2 10 Norte 15 Norte 0 813.9 0.5 100
2019-12-06 06:00:00 -0.1 8 Nordeste 14 Norte 0 813.6 0.3 100
2019-12-06 05:00:00 -0.4 8 Nordeste 24 Sur 0 813.5 0.2 100
2019-12-06 04:00:00 -0.2 14 Este 27 Este 0 813.4 0 100
2019-12-06 03:00:00 0 9 Nordeste 25 Este 0 813.3 -0.2 100
2019-12-06 02:00:00 0.1 10 Este 41 Este 0 813.3 -0.3 100
2019-12-06 01:00:00 0.1 14 Este 35 Este 0 813.4 0.1 100
2019-12-06 00:00:00 0.1 17 Este 35 Sudeste 0 813.5 0.5 100
2019-12-05 23:00:00 0.2 8 Este 23 Nordeste 0 813.6 0.9 100
2019-12-05 22:00:00 0.4 8 Nordeste 22 Este 0 813.3 1.2 99
2019-12-05 21:00:00 0.3 9 Este 33 Nordeste 0 813 1.1 100
2019-12-05 20:00:00 0.8 15 Este 34 Nordeste 0 812.7 1 100
2019-12-05 19:00:00 1.1 17 Este 32 Este 0 812.1 0.9 100
2019-12-05 18:00:00 1.2 8 Este 22 Nordeste 0 811.9 0.8 99
2019-12-05 17:00:00 1.4 10 Este 25 Este 0 811.7 0.9 98
2019-12-05 16:00:00 2 13 Este 29 Este 0 811.2 0.2 95
2019-12-05 15:00:00 2.2 5 Nordeste 19 Nordeste 0 811.1 0.1 97
2019-12-05 14:00:00 1.6 9 Este 21 Este 0 810.8 0.1 100
2019-12-05 13:00:00 1.8 6 Nordeste 29 Nordeste 0 811 1.4 98
2019-12-05 12:00:00 2.5 11 Este 33 Este 0 811 1.7 99
2019-12-05 11:00:00 1 15 Este 33 Nordeste 0 810.7 2.2 100
2019-12-05 10:00:00 0.1 14 Este 31 Este 0 809.6 1.5 100
2019-12-05 09:00:00 0 13 Este 31 Nordeste 0 809.3 1.8 100
2019-12-05 08:00:00 -0.1 19 Este 37 Nordeste 0 808.5 1.1 100
2019-12-05 07:00:00 -0.1 9 Este 40 Nordeste 0.2 808.1 0.9 100
2019-12-05 06:00:00 0 19 Este 39 Este 1 807.5 0.7 100
2019-12-05 05:00:00 0.4 14 Este 28 Este 0 807.4 0.6 100
2019-12-05 04:00:00 1.1 7 Norte 16 Este 0 807.2 0.5 96
2019-12-05 03:00:00 0.1 6 Norte 16 Norte 0 806.8 0.8 100
2019-12-05 02:00:00 1.3 8 Norte 21 Este 0 806.8 1 97
2019-12-05 01:00:00 0.7 6 Norte 16 Norte 0 806.7 1.2 100
2019-12-05 00:00:00 0.9 9 Noroeste 22 Norte 0 806 0.4 100
2019-12-04 23:00:00 1.1 13 Norte 23 Nordeste 0 805.8 0.9 99
2019-12-04 22:00:00 0.6 15 Nordeste 24 Nordeste 0 805.5 1.1 100
2019-12-04 21:00:00 0.6 13 Norte 31 Norte 0 805.6 1.4 100
2019-12-04 20:00:00 0.7 19 Nordeste 51 Nordeste 0 804.9 1.1 100
2019-12-04 19:00:00 0.8 22 Nordeste 41 Este 0.4 804.4 1 100
2019-12-04 18:00:00 0.7 21 Este 38 Este 0.6 804.2 1 100
2019-12-04 17:00:00 0.6 12 Nordeste 36 Nordeste 0 803.8 0.4 100
2019-12-04 16:00:00 0.9 14 Nordeste 31 Nordeste 0 803.4 -0.5 100
2019-12-04 15:00:00 1.1 13 Nordeste 30 Nordeste 0 803.2 -0.9 100
2019-12-04 14:00:00 1 14 Nordeste 31 Este 0 803.4 -0.9 100
2019-12-04 13:00:00 0.8 13 Este 28 Nordeste 0 803.9 -0.3 100
2019-12-04 12:00:00 0.8 10 Este 24 Este 0 804.1 0.1 100
2019-12-04 11:00:00 0.5 14 Este 30 Este 0 804.3 0.5 100
2019-12-04 10:00:00 0.5 13 Nordeste 28 Nordeste 0 804.2 0.4 100
2019-12-04 09:00:00 0.2 8 Nordeste 30 Este 0 804 0.2 100
2019-12-04 08:00:00 -0.1 5 Nordeste 27 Este 0 803.8 -0.6 100
2019-12-04 07:00:00 -0.1 10 Este 30 Este 0 803.8 -1 100
2019-12-04 06:00:00 0 10 Este 27 Este 0.2 803.8 -1.5 100
2019-12-04 05:00:00 0 5 Oeste 24 Este 0.2 804.4 -1.2 100
2019-12-04 04:00:00 0 10 Este 31 Este 0 804.8 -1.3 100
2019-12-04 03:00:00 0 10 Este 29 Este 0 805.3 -1.3 100
2019-12-04 02:00:00 -0.2 6 Este 37 Este 0 805.6 -1.1 99
2019-12-04 01:00:00 -0.9 10 Este 32 Este 0 806.1 -0.5 99
2019-12-04 00:00:00 -0.9 9 Este 31 Sudeste 0 806.6 0.3 99
2019-12-03 23:00:00 -0.4 7 Este 25 Sur 0 806.7 0.4 100
2019-12-03 22:00:00 -0.4 9 Sudeste 34 Sudeste 0 806.6 0.6 100
2019-12-03 21:00:00 -0.7 20 Sudeste 35 Sudeste 0 806.3 0.3 99
2019-12-03 20:00:00 -1 18 Sudeste 35 Sudeste 0 806.3 0.3 100
2019-12-03 19:00:00 -1.4 19 Sudeste 31 Sudeste 0 806 0 100
2019-12-03 18:00:00 -1.1 17 Sur 28 Sur 0 806 -0.1 97
2019-12-03 17:00:00 -0.4 13 Sur 25 Sur 0 806 -0.5 92
2019-12-03 16:00:00 0.6 12 Sur 25 Sur 0 806 -1 88
2019-12-03 15:00:00 2.3 8 Sur 23 Sur 0 806.1 -1.5 78
2019-12-03 14:00:00 2.9 10 Sur 23 Sur 0 806.5 -1.3 81
2019-12-03 13:00:00 2.9 9 Sur 22 Sur 0 807 -0.6 80
2019-12-03 12:00:00 3.2 10 Sur 19 Sur 0 807.6 -0.1 75
2019-12-03 11:00:00 1.7 6 Sur 18 Sur 0 807.8 0.1 69
2019-12-03 10:00:00 0.2 4 Noroeste 10 Sur 0 807.6 -0.2 76
2019-12-03 09:00:00 -1.7 4 Sudoeste 9 Sur 0 807.7 -0.2 74
2019-12-03 08:00:00 -1.5 3 Oeste 10 Sur 0 807.7 -0.4 68
2019-12-03 07:00:00 -1.5 0 Calma 9 Norte 0 807.8 -0.9 78
2019-12-03 06:00:00 -1.2 5 Norte 7 Norte 0 807.9 -0.9 83
2019-12-03 05:00:00 -1.2 6 Norte 9 Norte 0 808.1 -1 75
2019-12-03 04:00:00 -1.2 6 Sur 15 Sur 0 808.7 -0.9 88
2019-12-03 03:00:00 -1 8 Sudoeste 20 Sur 0 808.8 -0.9 88
2019-12-03 02:00:00 -0.6 10 Sur 16 Sur 0 809.1 -0.7 78
2019-12-03 01:00:00 -0.8 6 Oeste 13 Sur 0 809.6 -0.2 72
2019-12-03 00:00:00 -1.1 3 Sudoeste 23 Nordeste 0 809.7 -0.2 69
2019-12-02 23:00:00 -2.1 12 Nordeste 24 Nordeste 0 809.8 0.4 84
2019-12-02 22:00:00 -2 13 Nordeste 35 Este 0 809.8 0.6 89
2019-12-02 21:00:00 -2.4 12 Este 35 Este 0 809.9 1.1 98
2019-12-02 20:00:00 -1.9 21 Este 37 Este 0 809.4 0.7 98
2019-12-02 19:00:00 -1.3 18 Nordeste 48 Este 0 809.2 0.7 94
2019-12-02 18:00:00 -0.9 17 Este 30 Este 0 808.8 0.4 100
2019-12-02 17:00:00 -0.4 12 Este 24 Nordeste 0 808.7 0.3 99
2019-12-02 16:00:00 0.3 10 Este 28 Este 0 808.5 -0.1 92
2019-12-02 15:00:00 0.8 12 Este 26 Nordeste 0 808.4 -0.3 96
2019-12-02 14:00:00 0.1 12 Nordeste 37 Este 0 808.4 -0.1 94
2019-12-02 13:00:00 0 11 Nordeste 31 Este 2.2 808.6 0.9 95
2019-12-02 12:00:00 -0.6 13 Este 36 Este 0.4 808.7 1.7 97
2019-12-02 11:00:00 -0.9 17 Este 38 Nordeste 0 808.5 2 99
2019-12-02 10:00:00 -1.9 16 Este 36 Nordeste 0 807.7 1.6 99
2019-12-02 09:00:00 -2.8 14 Este 35 Este 0 807 0.8 99
2019-12-02 08:00:00 -3 13 Este 34 Nordeste 0 806.5 0.7 100
2019-12-02 07:00:00 -2.7 20 Nordeste 39 Este 0 806.1 0.5 100
2019-12-02 06:00:00 -2.4 10 Nordeste 35 Nordeste 0 806.2 0.8 100
2019-12-02 05:00:00 -2.3 14 Este 34 Este 0 805.8 0.7 100
2019-12-02 04:00:00 -2 14 Este 38 Nordeste 0 805.6 0.5 100
2019-12-02 03:00:00 -2 18 Este 59 Este 0 805.4 0.4 100
2019-12-02 02:00:00 -1.6 12 Este 39 Este 0.2 805.1 0.2 100
2019-12-02 01:00:00 -1.5 16 Este 38 Este 0.2 805.1 0.5 100
2019-12-02 00:00:00 -1.4 13 Este 32 Nordeste 0.2 805 0.5 100
2019-12-01 23:00:00 -1.3 12 Nordeste 26 Nordeste 0 804.9 0.6 100
2019-12-01 22:00:00 -1.4 10 Este 24 Nordeste 0.2 804.6 0.6 100
2019-12-01 21:00:00 -1.3 10 Este 25 Nordeste 0.6 804.5 0.7 100
2019-12-01 20:00:00 -1.1 11 Este 21 Este 1 804.3 0.9 100
2019-12-01 19:00:00 -1 11 Este 24 Este 2.4 804 0.5 100
2019-12-01 18:00:00 -0.9 10 Este 22 Este 1 803.8 0.3 100
2019-12-01 17:00:00 -0.7 10 Este 22 Este 1 803.4 -0.3 100
2019-12-01 16:00:00 -0.3 7 Nordeste 14 Sur 1.8 803.5 -0.6 100
2019-12-01 15:00:00 -0.1 3 Sur 22 Sur 1.2 803.5 -1 100
2019-12-01 14:00:00 -0.1 10 Sudeste 22 Sur 0.8 803.7 -0.8 100
2019-12-01 13:00:00 -0.1 11 Sudeste 27 Sudeste 2.4 804.1 -0.2 100
2019-12-01 12:00:00 -0.4 19 Sudeste 37 Sur 0.8 804.5 0.6 100
2019-12-01 11:00:00 -0.7 25 Sur 39 Sur 0.4 804.5 0.5 100
2019-12-01 10:00:00 -1.5 23 Sur 39 Sur 0 804.3 0.1 100
2019-12-01 09:00:00 -2.4 24 Sur 44 Sur 0.2 803.9 -0.7 100
2019-12-01 08:00:00 -2 22 Sur 41 Sur 0.2 804 -1.3 100
2019-12-01 07:00:00 -1.9 5 Sudeste 16 Sudoeste 0 804.2 -1.4 100
2019-12-01 06:00:00 -2.1 5 Sudoeste 16 Este 0 804.6 -1.4 100
2019-12-01 05:00:00 -2.6 11 Oeste 30 Sudoeste 0 805.3 -1 100
2019-12-01 04:00:00 -2.2 11 Noroeste 21 Noroeste 0 805.6 -1.5 100
2019-12-01 03:00:00 -1.7 6 Noroeste 25 Noroeste 0 806 -1.6 100
2019-12-01 02:00:00 -1.8 16 Noroeste 28 Noroeste 0 806.3 -1.6 100
2019-12-01 01:00:00 -1.5 4 Oeste 21 Norte 0 807.1 -0.8 100
2019-12-01 00:00:00 -1.4 8 Nordeste 29 Norte 0 807.6 -1.5 100
2019-11-30 23:00:00 -1.2 14 Norte 33 Norte 0 807.9 -1.3 100
2019-11-30 22:00:00 -1.3 16 Norte 29 Norte 1.2 807.9 -0.9 100
2019-11-30 21:00:00 -0.8 16 Norte 50 Norte 1.4 809.1 -0.5 100
2019-11-30 20:00:00 0.3 15 Norte 46 Norte 1.4 809.2 0.1 100
2019-11-30 19:00:00 2.5 4 Norte 26 Noroeste 1 808.8 -1.1 100
2019-11-30 18:00:00 3 8 Norte 49 Sudoeste 4 809.6 -0.8 100
2019-11-30 17:00:00 4.5 27 Sudoeste 46 Sudoeste 0 809.1 -1.8 100
2019-11-30 16:00:00 4.6 23 Sudoeste 42 Sudoeste 0 809.9 -2 100
2019-11-30 15:00:00 4.9 21 Sudoeste 44 Sudoeste 0 810.4 -2.1 100
2019-11-30 14:00:00 5 22 Sudoeste 42 Sur 0 810.9 -1.9 100
2019-11-30 13:00:00 5.9 22 Sudoeste 49 Sudoeste 0 811.9 -1 98
2019-11-30 12:00:00 6.7 24 Sudoeste 45 Sudoeste 0 812.5 -0.4 92
2019-11-30 11:00:00 5.1 27 Sudoeste 45 Oeste 0 812.8 -0.4 99
2019-11-30 10:00:00 5 19 Oeste 42 Oeste 0 812.9 -0.2 100
2019-11-30 09:00:00 4.3 16 Oeste 38 Oeste 0 812.9 -0.4 100
2019-11-30 08:00:00 3.8 9 Sudoeste 30 Sudoeste 0 813.2 -0.6 100
2019-11-30 07:00:00 4.2 11 Sudoeste 26 Sudoeste 0 813.1 -1.3 100
2019-11-30 06:00:00 4.7 14 Sudoeste 31 Oeste 0 813.3 -0.8 100
2019-11-30 05:00:00 5.1 10 Oeste 19 Oeste 0 813.8 -0.6 100
2019-11-30 04:00:00 5.1 8 Oeste 19 Noroeste 0 814.4 -0.5 100
2019-11-30 03:00:00 4.9 9 Nordeste 15 Nordeste 0 814.1 -0.9 100
2019-11-30 02:00:00 5.2 3 Sudoeste 26 Oeste 0 814.4 -0.5 100
2019-11-30 01:00:00 5.3 10 Oeste 24 Oeste 0 814.9 -0.1 100
2019-11-30 00:00:00 4.9 9 Sudoeste 26 Sudoeste 0 815 0 100
2019-11-29 23:00:00 5.3 8 Oeste 19 Oeste 0 814.9 0 100
2019-11-29 22:00:00 4.8 7 Sudoeste 28 Sudoeste 0 815 0.1 100
2019-11-29 21:00:00 3.8 10 Oeste 26 Oeste 0 815 0.3 100
2019-11-29 20:00:00 3.5 12 Oeste 22 Oeste 0 814.9 0.4 100
2019-11-29 19:00:00 3.6 7 Norte 15 Noroeste 0 814.9 0.8 100
2019-11-29 18:00:00 4.5 8 Noroeste 20 Norte 0 814.7 0.3 100
2019-11-29 17:00:00 4.9 8 Noroeste 23 Oeste 0 814.5 0.2 100
2019-11-29 16:00:00 5.7 5 Norte 21 Noroeste 0.2 814.1 -0.7 100
2019-11-29 15:00:00 5.8 9 Noroeste 24 Noroeste 0.6 814.4 -0.5 100
2019-11-29 14:00:00 7.3 7 Noroeste 25 Oeste 0.4 814.3 -0.6 100
2019-11-29 13:00:00 5.9 9 Noroeste 21 Noroeste 0.8 814.8 0.6 100
2019-11-29 12:00:00 5.9 8 Noroeste 24 Norte 1 814.9 1.4 100
2019-11-29 11:00:00 5.7 11 Noroeste 37 Noroeste 1 814.9 1.7 100
2019-11-29 10:00:00 5.6 8 Noroeste 29 Noroeste 1.6 814.2 1.7 100
2019-11-29 09:00:00 5.1 14 Norte 32 Noroeste 0.2 813.5 1.2 100
2019-11-29 08:00:00 4.7 11 Norte 35 Noroeste 0.4 813.2 1.2 100
2019-11-29 07:00:00 5 12 Noroeste 36 Noroeste 0.6 812.5 0.9 100
2019-11-29 06:00:00 5.2 12 Noroeste 46 Noroeste 1.6 812.3 1.1 100
2019-11-29 05:00:00 5.2 15 Noroeste 49 Oeste 0.8 812 0.9 100
2019-11-29 04:00:00 5.3 16 Noroeste 65 Oeste 0.8 811.6 0.6 100
2019-11-29 03:00:00 5.6 22 Noroeste 59 Oeste 0.6 811.2 0.5 100
2019-11-29 02:00:00 5.6 18 Oeste 50 Oeste 1.2 811.1 0.5 100
2019-11-29 01:00:00 5.3 18 Oeste 58 Oeste 0.6 811 0.4 100
2019-11-29 00:00:00 4.9 23 Oeste 66 Oeste 0 810.7 0.3 100
2019-11-28 23:00:00 4.6 24 Oeste 59 Oeste 0 810.6 0.6 100
2019-11-28 22:00:00 4.5 22 Oeste 67 Oeste 0 810.6 0.6 95
2019-11-28 21:00:00 3.8 21 Oeste 61 Oeste 0 810.4 0.8 96
2019-11-28 20:00:00 3.7 18 Oeste 58 Oeste 0 810 0.6 97
2019-11-28 19:00:00 3.7 21 Oeste 52 Oeste 0 810 0.4 95
2019-11-28 18:00:00 3.7 19 Oeste 44 Oeste 0 809.6 0 91
2019-11-28 17:00:00 4.5 23 Oeste 48 Oeste 0 809.4 -0.4 78
2019-11-28 16:00:00 4.5 12 Oeste 44 Sudoeste 0 809.6 -0.7 83
2019-11-28 15:00:00 5 9 Oeste 36 Sudoeste 0 809.6 -1.5 86
2019-11-28 14:00:00 4.7 4 Oeste 23 Sudoeste 0 809.8 -1.2 94
2019-11-28 13:00:00 3.9 7 Norte 26 Norte 0 810.3 -0.2 100
2019-11-28 12:00:00 3.1 10 Nordeste 33 Norte 0 811.1 0.9 100
2019-11-28 11:00:00 2.8 11 Norte 32 Norte 0 811 1.5 100
2019-11-28 10:00:00 2.2 12 Norte 35 Noroeste 0 810.5 1.4 100
2019-11-28 09:00:00 2.5 11 Norte 45 Noroeste 0 810.2 1.6 100
2019-11-28 08:00:00 2.7 14 Noroeste 43 Noroeste 0 809.5 1.1 100
2019-11-28 07:00:00 2.7 12 Noroeste 42 Noroeste 0 809.1 0.7 100
2019-11-28 06:00:00 2 13 Noroeste 37 Noroeste 0 808.6 0.5 100
2019-11-28 05:00:00 1.7 18 Noroeste 44 Noroeste 0 808.4 0.4 100
2019-11-28 04:00:00 1.8 17 Noroeste 46 Noroeste 0 808.4 0.2 100
2019-11-28 03:00:00 1.7 16 Noroeste 40 Noroeste 0 808.1 -0.1 100
2019-11-28 02:00:00 1.6 15 Oeste 46 Noroeste 0 808 0 100
2019-11-28 01:00:00 1.6 18 Oeste 53 Noroeste 0 808.2 0.7 100
2019-11-28 00:00:00 1.5 14 Noroeste 46 Oeste 0 808.2 0.7 100
2019-11-27 23:00:00 1.6 24 Oeste 53 Oeste 0 808 0.7 100
2019-11-27 22:00:00 1.5 17 Oeste 56 Oeste 0 807.5 0.4 100
2019-11-27 21:00:00 1.7 18 Oeste 62 Oeste 0 807.5 0.9 99
2019-11-27 20:00:00 1.6 19 Oeste 55 Oeste 0 807.3 1 93
2019-11-27 19:00:00 1.6 19 Oeste 60 Oeste 0 807.1 0.9 92
2019-11-27 18:00:00 1.7 18 Oeste 51 Oeste 0 806.6 0.4 95
2019-11-27 17:00:00 2.2 14 Oeste 40 Oeste 0 806.3 -0.2 93
2019-11-27 16:00:00 3 14 Oeste 37 Oeste 0 806.2 -0.7 91
2019-11-27 15:00:00 3.3 14 Oeste 39 Oeste 0 806.2 -1.2 89
2019-11-27 14:00:00 2.8 7 Oeste 26 Noroeste 0 806.5 -0.7 97
2019-11-27 06:00:00 0.2 14 Noroeste 48 Noroeste 0 804.9 0.3 100
2019-11-27 05:00:00 0.7 20 Noroeste 53 Noroeste 0 804.9 0.9 100
2019-11-27 04:00:00 2.1 18 Oeste 62 Oeste 0 804.8 0.5 100
2019-11-27 03:00:00 2.4 28 Oeste 78 Oeste 0 804.6 0.2 100
2019-11-27 02:00:00 3.1 30 Oeste 78 Sudoeste 0 804 -0.4 100
2019-11-27 01:00:00 3.4 33 Oeste 67 Oeste 0.6 804.3 -0.1 100
2019-11-27 00:00:00 3.1 27 Oeste 55 Oeste 1.2 804.4 -0.5 100
2019-11-26 23:00:00 3.2 29 Oeste 71 Oeste 0.2 804.4 -0.4 100
2019-11-26 22:00:00 3.7 34 Oeste 57 Oeste 0 804.4 -0.4 100
2019-11-26 21:00:00 5 28 Sudoeste 49 Sudoeste 0.4 804.9 -0.2 100
2019-11-26 20:00:00 5 31 Sudoeste 48 Sudoeste 0.4 804.8 -0.8 100
2019-11-26 19:00:00 4.8 30 Sudoeste 55 Sudoeste 0.4 804.8 -1.3 100
2019-11-26 18:00:00 4.6 24 Sur 50 Sudoeste 0 805.1 -1.1 100
2019-11-26 17:00:00 4.5 26 Sur 48 Sur 1 805.6 -1.5 100
2019-11-26 16:00:00 4.6 23 Sur 53 Sur 0 806.1 -1.5 100
2019-11-26 15:00:00 5 32 Sudoeste 51 Sudoeste 0 806.2 -2.2 100
2019-11-26 14:00:00 5.4 27 Sudoeste 51 Sudoeste 0.4 807.1 -1.8 100
2019-11-26 13:00:00 6.3 24 Sudoeste 45 Sudoeste 0 807.6 -1.1 91
2019-11-26 12:00:00 7.3 26 Sudoeste 46 Oeste 0 808.4 -0.3 82
2019-11-26 11:00:00 6.9 24 Sudoeste 45 Sudoeste 0 808.9 0 82
2019-11-26 10:00:00 6.6 21 Sudoeste 40 Sudoeste 0 808.7 -0.2 84
2019-11-26 09:00:00 5.8 21 Sudoeste 40 Oeste 0 808.7 -0.4 100
2019-11-26 08:00:00 5.9 17 Oeste 38 Oeste 0.2 808.9 -0.7 100
2019-11-26 07:00:00 5.9 14 Oeste 36 Oeste 0.2 808.9 -1.1 100
2019-11-26 06:00:00 6.3 11 Oeste 32 Oeste 0 809.1 -1 100
2019-11-26 05:00:00 5.4 4 Nordeste 22 Noroeste 0 809.6 -0.5 82
2019-11-26 04:00:00 5.3 6 Oeste 26 Noroeste 0 810 -0.6 37
2019-11-26 03:00:00 4.8 13 Noroeste 30 Noroeste 0 810.1 -0.7 91
2019-11-26 02:00:00 2 7 Noroeste 27 Norte 0 810.1 -0.8 100
2019-11-26 01:00:00 1.8 13 Norte 27 Norte 0 810.6 -0.2 100
2019-11-26 00:00:00 2.1 14 Nordeste 27 Norte 0 810.8 0 100
2019-11-25 23:00:00 2.4 18 Norte 32 Norte 0 810.9 0.2 100
2019-11-25 22:00:00 2.8 17 Norte 40 Norte 0 810.8 0.4 100
2019-11-25 21:00:00 2.8 22 Norte 48 Norte 0 810.8 0.9 100
2019-11-25 20:00:00 2.9 18 Norte 44 Norte 0 810.7 0.8 100
2019-11-25 19:00:00 3.1 15 Norte 44 Noroeste 0 810.4 0.9 100
2019-11-25 18:00:00 3 19 Norte 41 Norte 0 809.9 0.7 100
2019-11-25 17:00:00 2.9 14 Norte 36 Norte 0 809.9 0.5 100
2019-11-25 16:00:00 3 15 Norte 33 Noroeste 0 809.5 0 100
2019-11-25 15:00:00 3.2 13 Norte 35 Noroeste 0 809.2 -0.6 100
2019-11-25 14:00:00 3.6 10 Norte 30 Norte 0 809.4 -0.1 100
2019-11-25 13:00:00 3.5 11 Noroeste 37 Oeste 0 809.5 0.6 100
2019-11-25 12:00:00 3 16 Noroeste 35 Norte 0 809.8 1.4 100
2019-11-25 11:00:00 3 9 Noroeste 31 Oeste 0 809.5 1.5 100
2019-11-25 10:00:00 2.7 9 Noroeste 38 Noroeste 0 808.9 1.4 100
2019-11-25 09:00:00 2.8 13 Noroeste 48 Noroeste 0 808.4 0.9 100
2019-11-25 08:00:00 2.9 14 Noroeste 64 Noroeste 0 808 0.5 100
2019-11-25 07:00:00 2.7 20 Noroeste 57 Noroeste 0 807.5 0.1 100
2019-11-25 06:00:00 3.3 19 Noroeste 60 Oeste 0.6 807.5 -0.1 100
2019-11-25 05:00:00 3.3 18 Noroeste 63 Oeste 2.2 807.5 0 100
2019-11-25 04:00:00 4.4 17 Noroeste 66 Oeste 0.2 807.4 -0.1 100
2019-11-25 03:00:00 4.8 22 Oeste 73 Oeste 1 807.6 -0.1 100
2019-11-25 02:00:00 5.1 32 Oeste 79 Oeste 1.2 807.5 -0.8 100
2019-11-25 01:00:00 4.8 28 Oeste 76 Oeste 0 807.5 -0.3 100
2019-11-25 00:00:00 4.3 28 Oeste 62 Oeste 0.4 807.7 -0.3 100
2019-11-24 23:00:00 3.9 20 Oeste 59 Oeste 0 808.3 0.4 100
2019-11-24 22:00:00 3 18 Noroeste 43 Oeste 0 807.8 0.2 100
2019-11-24 21:00:00 2.1 14 Noroeste 40 Noroeste 0.2 808 0.7 100
2019-11-24 20:00:00 0.5 14 Noroeste 37 Noroeste 0.2 807.9 0.4 100
2019-11-24 19:00:00 0 14 Norte 30 Noroeste 0 807.6 0.5 100
2019-11-24 18:00:00 -0.5 14 Norte 29 Norte 0 807.3 0 100
2019-11-24 17:00:00 -0.6 18 Norte 27 Norte 0 807.5 0.1 100
2019-11-24 16:00:00 -0.5 11 Nordeste 22 Norte 0 807.1 -0.7 100
2019-11-24 15:00:00 -0.5 10 Norte 24 Norte 0 807.3 -1 100
2019-11-24 14:00:00 -1 15 Norte 31 Norte 0 807.4 -0.7 100
2019-11-24 13:00:00 -1.4 14 Norte 29 Norte 0 807.8 0.6 100
2019-11-24 12:00:00 -2.3 11 Norte 28 Norte 0 808.3 1.7 100
2019-11-24 11:00:00 -2.7 17 Norte 32 Noroeste 0 808.1 2.1 100
2019-11-24 10:00:00 -2.9 13 Norte 43 Norte 0 807.2 1.8 100
2019-11-24 09:00:00 -2.9 16 Norte 48 Norte 0 806.6 1.6 100
2019-11-24 08:00:00 -2.8 21 Norte 49 Noroeste 0 806 1.4 100
2019-11-24 07:00:00 -2.6 17 Noroeste 50 Noroeste 0 805.4 0.9 100
2019-11-24 06:00:00 -2.3 19 Noroeste 50 Noroeste 0 805 0.7 100
2019-11-24 05:00:00 -2.1 24 Noroeste 53 Norte 0 804.6 0.7 100
2019-11-24 04:00:00 -1.9 15 Noroeste 55 Noroeste 0 804.5 0.8 100
2019-11-24 03:00:00 -1.8 21 Noroeste 62 Noroeste 0 804.3 0.7 100
2019-11-24 02:00:00 -1.6 23 Noroeste 63 Noroeste 0 803.9 0.1 100
2019-11-24 01:00:00 -1.5 24 Noroeste 69 Noroeste 0 803.7 -0.2 100
2019-11-24 00:00:00 -1.5 25 Noroeste 62 Norte 0 803.6 -0.1 100
2019-11-23 23:00:00 -1.3 21 Noroeste 59 Noroeste 0 803.8 0.6 100
2019-11-23 22:00:00 -1.3 19 Noroeste 53 Noroeste 0 803.9 1.4 100
2019-11-23 21:00:00 -1.4 18 Noroeste 68 Oeste 0 803.7 2 100
2019-11-23 20:00:00 -1.3 18 Noroeste 54 Oeste 0.2 803.2 2.4 100
2019-11-23 19:00:00 -1.3 19 Noroeste 44 Noroeste 0.2 802.5 2.6 100
2019-11-23 18:00:00 -1.2 15 Noroeste 44 Noroeste 0 801.7 2.5 100
2019-11-23 17:00:00 -1.2 16 Noroeste 48 Noroeste 0 800.8 2.6 100
2019-11-23 16:00:00 -1.4 17 Noroeste 50 Oeste 0 799.9 2.6 100
2019-11-23 15:00:00 -1.5 17 Noroeste 65 Noroeste 0 799.2 2.7 100
2019-11-23 14:00:00 -1.6 25 Noroeste 76 Norte 0.4 798.2 2.5 100
2019-11-23 13:00:00 -1.8 24 Noroeste 74 Noroeste 0 797.3 3.2 100
2019-11-23 12:00:00 -2.3 22 Noroeste 78 Noroeste 0 796.5 3.5 100
2019-11-23 11:00:00 -2.7 27 Noroeste 81 Norte 0 795.7 3.7 100
2019-11-23 10:00:00 -3.1 28 Noroeste 81 Noroeste 0 794.1 3.6 100
2019-11-23 09:00:00 -3.2 31 Noroeste 95 Noroeste 0 793 2.2 100
2019-11-23 08:00:00 -3.1 24 Noroeste 77 Noroeste 0.2 792 1.7 100
2019-11-23 07:00:00 -2.7 29 Noroeste 85 Noroeste 1.8 790.5 1.4 100
2019-11-23 06:00:00 -2.3 28 Noroeste 81 Noroeste 3.6 790.8 1.9 100
2019-11-23 05:00:00 -2 23 Noroeste 84 Oeste 4 790.3 0.9 100
2019-11-23 04:00:00 -1.9 26 Noroeste 81 Oeste 2 789.1 -0.4 100
2019-11-23 03:00:00 -2 28 Oeste 94 Oeste 0 788.9 -0.9 100
2019-11-23 02:00:00 -1.5 24 Oeste 70 Oeste 0.6 789.4 -0.4 100
2019-11-23 01:00:00 -0.7 29 Oeste 78 Oeste 0.4 789.5 -0.4 100
2019-11-23 00:00:00 -0.3 34 Oeste 79 Oeste 0.4 789.8 0 100
2019-11-22 23:00:00 0.2 30 Oeste 77 Oeste 0.2 789.8 0.1 100
2019-11-22 22:00:00 0.4 32 Oeste 67 Oeste 0 789.9 0.2 100
2019-11-22 21:00:00 0.5 28 Oeste 58 Oeste 0.4 789.8 0.4 100
2019-11-22 20:00:00 0.9 28 Oeste 66 Oeste 0.2 789.7 0.3 100
2019-11-22 19:00:00 1.8 25 Oeste 82 Oeste 0.2 789.7 -0.2 100
2019-11-22 18:00:00 2.4 30 Oeste 61 Oeste 0 789.4 -1.1 100
2019-11-22 17:00:00 2.7 23 Sudoeste 45 Sudoeste 0 789.4 -1.7 100
2019-11-22 16:00:00 3 28 Sudoeste 66 Sudoeste 0 789.9 -2.5 100
2019-11-22 15:00:00 2.9 31 Sur 52 Sur 0.6 790.5 -2.8 100
2019-11-22 14:00:00 2.2 28 Sur 50 Sur 2.4 791.1 -3 100
2019-11-22 13:00:00 1.5 24 Sur 62 Sur 2.4 792.4 -2.5 100
2019-11-22 12:00:00 1.3 35 Sudeste 65 Sudeste 0.4 793.3 -2.3 100
2019-11-22 11:00:00 1.1 32 Sur 67 Sur 1.6 794.1 -2.1 100
2019-11-22 10:00:00 0.8 36 Sur 73 Sur 3.6 794.9 -1.7 100
2019-11-22 09:00:00 0.2 30 Sur 57 Sur 1.4 795.6 -1.6 100
2019-11-22 08:00:00 0.2 32 Sur 58 Sudoeste 1 796.2 -1.5 100
2019-11-22 07:00:00 0.1 32 Sur 68 Sudoeste 2.4 796.6 -2.1 100
2019-11-22 06:00:00 0 34 Sudoeste 59 Sudoeste 0.8 797.2 -2 100
2019-11-22 05:00:00 0 23 Sur 45 Sur 1 797.7 -1.8 100
2019-11-22 04:00:00 0 22 Sudoeste 46 Sur 0.8 798.7 -1.2 100
2019-11-22 03:00:00 -0.1 20 Sur 38 Sur 1 799.2 -1.3 100
2019-11-22 02:00:00 -0.3 17 Sur 38 Sudoeste 0 799.5 -1.1 100
2019-11-22 01:00:00 -0.9 24 Sur 36 Sur 0 799.9 -1.7 100
2019-11-22 00:00:00 -0.9 22 Sur 37 Sur 0 800.5 -0.6 100
2019-11-21 23:00:00 -1 24 Sur 37 Sur 0 800.6 -0.4 100
2019-11-21 22:00:00 -1.2 14 Oeste 28 Oeste 0 801.6 0.6 100
2019-11-21 21:00:00 -1.2 10 Sudoeste 23 Sudoeste 0 801.1 0.1 100
2019-11-21 20:00:00 -0.9 6 Oeste 25 Oeste 0 801 0.1 100
2019-11-21 19:00:00 -0.3 7 Oeste 18 Oeste 0 801 0.2 100
2019-11-21 18:00:00 -0.2 10 Oeste 24 Oeste 0 801 0.3 100
2019-11-21 17:00:00 0 12 Oeste 27 Oeste 0.8 800.9 0.1 100
2019-11-21 16:00:00 0.1 8 Oeste 32 Oeste 0.2 800.8 -0.2 100
2019-11-21 15:00:00 0.6 13 Oeste 30 Oeste 0.6 800.7 -0.9 100
2019-11-21 14:00:00 0.6 10 Oeste 35 Oeste 0 800.8 -0.6 100
2019-11-21 13:00:00 0 16 Oeste 39 Oeste 0.2 801 0 100
2019-11-21 12:00:00 -0.1 12 Oeste 28 Oeste 0.6 801.6 0.9 100
2019-11-21 11:00:00 -0.4 17 Oeste 42 Oeste 0.2 801.4 0.8 100
2019-11-21 10:00:00 -0.8 18 Oeste 44 Oeste 0.2 801 0.6 100
2019-11-21 09:00:00 -1 20 Oeste 40 Oeste 0 800.7 0.4 100
2019-11-21 08:00:00 -1.6 17 Oeste 35 Oeste 0 800.6 0.2 100
2019-11-21 07:00:00 -1.7 17 Sudoeste 34 Sudoeste 0 800.4 -0.6 100
2019-11-21 06:00:00 -2.2 13 Sudoeste 25 Sudoeste 0 800.3 -0.6 100
2019-11-21 05:00:00 -2.3 15 Sudoeste 30 Sudoeste 0 800.4 -0.4 100
2019-11-21 04:00:00 -2 14 Oeste 27 Oeste 0 801 -0.1 100
2019-11-21 03:00:00 -2.3 8 Oeste 27 Oeste 0 800.9 -0.3 100
2019-11-21 02:00:00 -2.5 11 Sudoeste 31 Oeste 0 800.8 -0.4 100
2019-11-21 01:00:00 -1.9 13 Oeste 25 Sudoeste 0 801.1 0.2 100
2019-11-21 00:00:00 -1.5 9 Oeste 22 Oeste 0 801.2 0.2 100
2019-11-20 23:00:00 -1.3 11 Oeste 27 Oeste 0 801.2 0.2 100
2019-11-20 22:00:00 -1.4 7 Sur 24 Sur 0 800.9 0.1 100
2019-11-20 21:00:00 -1.2 3 Este 12 Sur 0.2 801 0.1 100
2019-11-20 20:00:00 -1.2 5 Oeste 24 Oeste 0 801 0.3 100
2019-11-20 19:00:00 -1.4 14 Oeste 25 Oeste 0 800.8 0.1 100
2019-11-20 18:00:00 -2 6 Sur 34 Sur 0.6 800.9 0 100
2019-11-20 17:00:00 -1.9 17 Sur 40 Sur 1 800.7 -0.7 100
2019-11-20 16:00:00 -1.6 24 Sur 43 Sur 0.8 800.7 -1.3 100
2019-11-20 15:00:00 -1.7 29 Sur 44 Sur 0.8 800.9 -1.8 100
2019-11-20 14:00:00 -1.9 23 Sur 42 Sur 0 801.4 -1.7 100
2019-11-20 13:00:00 -1.3 28 Sur 44 Sudoeste 0 802 -1.1 100
2019-11-20 12:00:00 -1 26 Sur 46 Sur 0 802.7 -0.4 100
2019-11-20 11:00:00 -1.9 25 Sur 46 Sur 0 803.1 0.2 100
2019-11-20 10:00:00 -2.2 28 Sur 44 Sur 0 803.1 0 100
2019-11-20 09:00:00 -2.8 21 Sudeste 36 Sur 0 803.1 -0.3 100
2019-11-20 08:00:00 -2.7 20 Sur 30 Sur 0 802.9 -0.9 99
2019-11-20 07:00:00 -2.8 18 Sur 30 Sur 0 803.1 -1.2 100
2019-11-20 06:00:00 -3 17 Sur 27 Sur 0 803.4 -1.2 100
2019-11-20 05:00:00 -2.9 12 Sur 23 Sur 0 803.8 -1.2 100
2019-11-20 04:00:00 -2.9 12 Sur 27 Sur 0 804.3 -1.3 100
2019-11-20 03:00:00 -3 14 Sur 27 Sur 0 804.6 -1.4 100
2019-11-20 02:00:00 -2.5 15 Sur 28 Sur 0 805 -1.5 100
2019-11-20 01:00:00 -2.5 16 Sur 26 Sur 0 805.6 -1 100
2019-11-20 00:00:00 -2.7 13 Sudeste 27 Sur 0 806 -0.8 100
2019-11-19 23:00:00 -3 16 Sur 26 Sur 0 806.5 -0.4 100
2019-11-19 22:00:00 -4.1 10 Sur 20 Sur 0 806.6 -0.2 100
2019-11-19 21:00:00 -4.3 4 Oeste 8 Este 0 806.8 0 100
2019-11-19 20:00:00 -3.9 5 Este 11 Nordeste 0 806.9 0 100
2019-11-19 19:00:00 -2.9 5 Nordeste 11 Nordeste 0 806.8 -0.3 100
2019-11-19 18:00:00 -1.7 5 Norte 11 Norte 0 806.8 -0.5 100
2019-11-19 17:00:00 -1.3 4 Norte 14 Norte 0 806.9 -0.9 100
2019-11-19 16:00:00 -0.9 8 Norte 15 Norte 0 807.1 -1.1 100
2019-11-19 15:00:00 -0.6 5 Noroeste 13 Noroeste 0 807.3 -1.6 100
2019-11-19 14:00:00 -0.4 5 Noroeste 13 Norte 0 807.8 -1.3 100
2019-11-19 13:00:00 -0.8 6 Nordeste 12 Norte 0 808.2 -1 100
2019-11-19 12:00:00 -0.5 4 Sudoeste 9 Sur 0 808.9 0 100
2019-11-19 11:00:00 -1.7 4 Noroeste 15 Norte 0 809.1 0.6 100
2019-11-19 10:00:00 -2.3 9 Norte 19 Norte 0 809.2 1.1 100
2019-11-19 09:00:00 -3.1 8 Nordeste 28 Norte 0 808.9 0.6 100
2019-11-19 08:00:00 -3.3 12 Norte 24 Norte 0 808.5 0.3 100
2019-11-19 07:00:00 -4 18 Norte 30 Norte 0 808.1 -0.3 100
2019-11-19 06:00:00 -4.1 19 Norte 27 Norte 0 808.3 -0.3 100
2019-11-19 05:00:00 -4 17 Norte 24 Norte 0 808.2 -0.4 100
2019-11-19 04:00:00 -3.9 14 Norte 24 Norte 0 808.4 -0.4 100
2019-11-19 03:00:00 -3.9 17 Norte 28 Norte 0 808.6 -0.7 100
2019-11-19 02:00:00 -3.4 18 Norte 28 Norte 0 808.6 -0.8 100
2019-11-19 01:00:00 -3.6 18 Norte 28 Norte 0 808.8 -0.3 100
2019-11-19 00:00:00 -2.7 13 Norte 29 Norte 0 809.3 0.5 100
2019-11-18 23:00:00 -2.7 16 Norte 32 Norte 0 809.4 0.7 100
2019-11-18 22:00:00 -3 16 Norte 33 Norte 0 809.1 0.7 100
2019-11-18 21:00:00 -2.7 19 Norte 32 Norte 0 808.8 0.5 100
2019-11-18 20:00:00 -2.7 14 Norte 30 Norte 0.2 808.7 0.8 100
2019-11-18 19:00:00 -2.8 14 Nordeste 26 Nordeste 1 808.4 0.8 100
2019-11-18 18:00:00 -2.8 12 Norte 28 Norte 0 808.3 1.1 100
2019-11-18 17:00:00 -2.6 14 Norte 29 Noroeste 0 807.9 1 100
2019-11-18 16:00:00 -2.9 12 Nordeste 35 Norte 0 807.6 0.7 100
2019-11-18 15:00:00 -2.7 10 Norte 31 Norte 0 807.2 0.2 100
2019-11-18 14:00:00 -2.8 19 Norte 39 Norte 0 806.9 0.2 100
2019-11-18 13:00:00 -2.6 15 Norte 32 Norte 0 806.9 0.8 100
2019-11-18 12:00:00 -3 14 Norte 36 Norte 0 807 1.5 100
2019-11-18 11:00:00 -2.9 17 Norte 36 Norte 0 806.7 1.9 100
2019-11-18 10:00:00 -3.1 18 Norte 41 Norte 0 806.1 1.8 100
2019-11-18 09:00:00 -3.3 18 Noroeste 41 Noroeste 0 805.5 1.5 100
2019-11-18 08:00:00 -3.3 21 Norte 48 Norte 0.2 804.8 1.3 100
2019-11-18 07:00:00 -3.4 19 Norte 43 Norte 0 804.3 1.2 100
2019-11-18 06:00:00 -3.2 17 Norte 31 Norte 0 804 1.1 100
2019-11-18 05:00:00 -3.2 16 Norte 39 Norte 0.4 803.5 0.8 100
2019-11-18 04:00:00 -3 19 Norte 38 Noroeste 0.4 803.1 0.7 100
2019-11-18 03:00:00 -2.8 17 Norte 43 Norte 0.4 802.9 0.3 100
2019-11-18 02:00:00 -2.7 21 Noroeste 53 Noroeste 0.4 802.7 0.1 100
2019-11-18 01:00:00 -2.5 25 Norte 54 Noroeste 0 802.4 0 100
2019-11-18 00:00:00 -2.1 22 Noroeste 50 Noroeste 0 802.6 0 100
2019-11-17 23:00:00 -1.8 21 Noroeste 62 Noroeste 0 802.6 -0.2 100
2019-11-17 22:00:00 -1 28 Noroeste 59 Noroeste 0 802.4 -0.8 100
2019-11-17 21:00:00 -0.2 22 Noroeste 58 Noroeste 0 802.6 -0.6 100
2019-11-17 20:00:00 -0.1 22 Noroeste 57 Noroeste 0 802.8 -0.9 100
2019-11-17 19:00:00 -0.1 17 Noroeste 51 Noroeste 1 803.2 -0.8 100
2019-11-17 18:00:00 0.3 17 Noroeste 59 Noroeste 1 803.2 -1 100
2019-11-17 17:00:00 0.8 16 Noroeste 51 Oeste 0.8 803.7 -1.2 100
2019-11-17 16:00:00 1.1 23 Noroeste 57 Oeste 2.4 804 -1 100
2019-11-17 15:00:00 1.9 17 Oeste 49 Noroeste 3.2 804.2 -1.7 100
2019-11-17 14:00:00 1.1 18 Noroeste 50 Noroeste 2.6 804.9 -1.2 100
2019-11-17 13:00:00 1.1 19 Oeste 54 Noroeste 0.6 805 -1.1 100
2019-11-17 12:00:00 0 14 Oeste 40 Noroeste 0.4 805.9 0 100
2019-11-17 11:00:00 -0.1 12 Noroeste 41 Noroeste 0.2 806.1 0.3 100
2019-11-17 10:00:00 -0.1 11 Noroeste 33 Noroeste 1 806.1 0.4 100
2019-11-17 09:00:00 -0.8 11 Noroeste 27 Norte 0.2 805.9 0.1 100
2019-11-17 08:00:00 -1.9 11 Noroeste 28 Noroeste 0 805.8 0 100
2019-11-17 07:00:00 -2.7 9 Norte 28 Noroeste 0 805.7 -0.2 100
2019-11-17 06:00:00 -3 12 Noroeste 36 Noroeste 0 805.8 -0.4 100
2019-11-17 05:00:00 -3.1 10 Noroeste 39 Noroeste 0 805.8 -0.4 100
2019-11-17 04:00:00 -3.7 10 Noroeste 33 Noroeste 0 805.9 -0.4 100
2019-11-17 03:00:00 -4 13 Noroeste 36 Noroeste 0 806.2 -0.4 100
2019-11-17 02:00:00 -4.2 14 Noroeste 38 Noroeste 0 806.2 -0.6 100
2019-11-17 01:00:00 -4.4 15 Norte 45 Noroeste 0 806.3 -0.6 100
2019-11-17 00:00:00 -4.5 17 Norte 49 Noroeste 0 806.6 -0.1 100
2019-11-16 23:00:00 -4.6 18 Noroeste 44 Norte 0 806.8 0 100
2019-11-16 22:00:00 -4.4 15 Noroeste 42 Noroeste 0 806.9 -0.2 100
2019-11-16 21:00:00 -4 11 Noroeste 36 Noroeste 0 806.7 -0.1 100
2019-11-16 20:00:00 -3.9 14 Noroeste 33 Norte 0 806.8 0.2 100
2019-11-16 19:00:00 -3.8 12 Noroeste 31 Norte 0 807.1 0.7 100
2019-11-16 18:00:00 -3.8 13 Norte 36 Norte 0 806.8 0.5 100
2019-11-16 17:00:00 -3.4 19 Norte 40 Norte 0 806.6 0.4 100
2019-11-16 16:00:00 -3.6 14 Norte 38 Norte 0 806.4 0.5 100
2019-11-16 15:00:00 -3.6 9 Norte 21 Norte 0 806.3 0.1 100
2019-11-16 14:00:00 -3.2 8 Norte 26 Norte 0.2 806.2 0.7 100
2019-11-16 13:00:00 -3.5 12 Norte 28 Norte 0.8 805.9 0.8 100
2019-11-16 12:00:00 -3.9 9 Norte 26 Norte 0.2 806.2 2 100
2019-11-16 11:00:00 -4.7 15 Norte 30 Norte 0 805.5 1.9 100
2019-11-16 10:00:00 -5.3 15 Norte 28 Norte 0 805.1 2.1 100
2019-11-16 09:00:00 -6.2 14 Noroeste 29 Noroeste 0 804.2 1.9 100
2019-11-16 08:00:00 -5.8 14 Nordeste 27 Nordeste 0 803.6 1.9 100
2019-11-16 07:00:00 -5.7 13 Norte 31 Norte 0 803 1.9 100
2019-11-16 06:00:00 -5.6 16 Norte 34 Norte 0 802.3 1.3 100
2019-11-16 05:00:00 -5.2 15 Norte 37 Norte 0 801.7 1.2 100
2019-11-16 04:00:00 -5.1 17 Norte 39 Norte 0 801.1 0.7 100
2019-11-16 03:00:00 -5 18 Norte 33 Norte 0 801 1 100
2019-11-16 02:00:00 -4.8 21 Norte 41 Noroeste 0 800.5 0.9 100
2019-11-16 01:00:00 -4.7 18 Noroeste 44 Noroeste 0 800.4 1.2 100
2019-11-16 00:00:00 -4.6 19 Noroeste 45 Noroeste 0.4 800 1.5 100